Time;durP1;ratioP1;P1;durP2;ratioP2;P2;SDS_P1;SDS_P2;PMS_P1;PMS_P2;Temp;Humidity;BMP_temperature;BMP_pressure;BME280_temperature;BME280_humidity;BME280_pressure;Samples;Min_cycle;Max_cycle;Signal;HPM_P1;HPM_P2
2021/10/17 00:02:43;;;;;;;15.93;7.78;;;14.70;61.80;;;;;;6223463;28;21182;-72
2021/10/17 00:05:44;;;;;;;23.45;7.80;;;14.70;61.80;;;;;;6223428;28;20091;-72
2021/10/17 00:08:45;;;;;;;16.27;7.85;;;14.70;61.80;;;;;;6206328;28;20440;-72
2021/10/17 00:11:46;;;;;;;14.90;6.97;;;14.70;61.80;;;;;;6223315;28;20464;-72
2021/10/17 00:14:47;;;;;;;14.32;6.97;;;14.70;61.80;;;;;;6223862;28;20037;-71
2021/10/17 00:17:48;;;;;;;12.15;6.97;;;14.70;61.80;;;;;;6229911;28;20033;-71
2021/10/17 00:20:49;;;;;;;13.85;7.47;;;14.70;61.80;;;;;;6223175;28;20038;-71
2021/10/17 00:23:50;;;;;;;18.02;8.00;;;14.70;61.70;;;;;;6223703;28;20030;-71
2021/10/17 00:26:51;;;;;;;13.57;6.85;;;14.60;61.70;;;;;;6239279;28;20042;-74
2021/10/17 00:29:52;;;;;;;16.52;7.50;;;14.60;61.70;;;;;;6205303;28;20068;-72
2021/10/17 00:32:53;;;;;;;16.60;7.95;;;14.60;61.70;;;;;;6223172;28;20075;-73
2021/10/17 00:35:54;;;;;;;12.85;7.40;;;14.60;61.70;;;;;;6239352;28;20062;-72
2021/10/17 00:38:55;;;;;;;13.48;7.18;;;14.60;61.80;;;;;;6222447;28;20053;-71
2021/10/17 00:42:01;;;;;;;17.88;7.38;;;14.60;61.90;;;;;;6223322;28;20124;-72
2021/10/17 00:45:06;;;;;;;15.23;7.78;;;14.60;62.00;;;;;;6224288;28;20374;-71
2021/10/17 00:48:07;;;;;;;14.05;7.22;;;14.60;62.10;;;;;;6223596;28;20034;-71
2021/10/17 00:51:09;;;;;;;15.88;6.68;;;14.50;62.10;;;;;;6238492;28;20033;-71
2021/10/17 00:54:12;;;;;;;13.15;7.13;;;14.50;62.20;;;;;;6223824;28;20455;-71
2021/10/17 00:57:14;;;;;;;13.93;6.53;;;14.50;62.20;;;;;;6222451;28;20046;-71
2021/10/17 01:00:16;;;;;;;12.57;6.20;;;14.50;62.30;;;;;;6223546;28;20085;-71
2021/10/17 01:03:17;;;;;;;14.60;7.20;;;14.50;62.20;;;;;;6223360;28;20040;-70
2021/10/17 01:06:18;;;;;;;14.82;6.85;;;14.50;62.20;;;;;;6220251;28;20451;-72
2021/10/17 01:09:19;;;;;;;26.02;7.80;;;14.50;62.10;;;;;;6223676;28;20030;-73
2021/10/17 01:12:20;;;;;;;15.15;7.43;;;14.50;62.10;;;;;;6222034;28;20029;-71
2021/10/17 01:15:21;;;;;;;18.02;8.10;;;14.50;62.10;;;;;;6226657;28;20037;-71
2021/10/17 01:18:27;;;;;;;20.90;7.75;;;14.50;62.20;;;;;;6222399;28;20113;-72
2021/10/17 01:21:32;;;;;;;18.67;7.97;;;14.40;62.20;;;;;;6238386;28;20034;-71
2021/10/17 01:24:33;;;;;;;16.08;7.32;;;14.40;62.30;;;;;;6219241;28;20061;-72
2021/10/17 01:27:33;;;;;;;19.60;7.80;;;14.30;62.40;;;;;;6220278;28;20042;-72
2021/10/17 01:30:34;;;;;;;18.65;7.93;;;14.30;62.50;;;;;;6216908;28;20041;-71
2021/10/17 01:33:35;;;;;;;17.67;7.93;;;14.30;62.50;;;;;;6238544;28;20374;-72
2021/10/17 01:36:38;;;;;;;15.82;7.88;;;14.20;62.50;;;;;;6221886;28;20034;-72
2021/10/17 01:39:39;;;;;;;19.48;7.68;;;14.20;62.40;;;;;;6239299;28;20042;-72
2021/10/17 01:42:40;;;;;;;15.45;7.70;;;14.10;62.30;;;;;;6222613;28;20034;-71
2021/10/17 01:45:41;;;;;;;12.57;6.95;;;14.10;62.50;;;;;;6207199;28;20038;-72
2021/10/17 01:48:43;;;;;;;20.80;6.85;;;14.10;62.50;;;;;;6222985;28;20448;-71
2021/10/17 01:51:44;;;;;;;12.73;6.90;;;14.10;62.70;;;;;;6224242;28;20092;-71
2021/10/17 01:54:45;;;;;;;13.90;6.70;;;14.00;62.80;;;;;;6206336;28;20073;-70
2021/10/17 01:57:52;;;;;;;15.13;7.63;;;14.00;63.00;;;;;;6221411;28;20152;-71
2021/10/17 02:00:54;;;;;;;15.38;6.63;;;14.00;63.10;;;;;;6239096;28;20046;-72
2021/10/17 02:03:58;;;;;;;11.82;6.35;;;13.90;63.20;;;;;;6222809;28;20041;-71
2021/10/17 02:06:59;;;;;;;18.95;6.90;;;13.90;63.40;;;;;;6222837;28;20026;-71
2021/10/17 02:10:00;;;;;;;13.13;6.40;;;13.80;63.50;;;;;;6206511;28;20435;-71
2021/10/17 02:13:01;;;;;;;14.45;6.80;;;13.80;63.60;;;;;;6222246;28;20474;-71
2021/10/17 02:16:03;;;;;;;13.70;6.03;;;13.70;63.70;;;;;;6225111;28;20446;-72
2021/10/17 02:19:04;;;;;;;10.25;5.63;;;13.70;63.70;;;;;;6206410;28;20052;-71
2021/10/17 02:22:05;;;;;;;12.55;6.43;;;13.70;63.90;;;;;;6206614;28;20092;-72
2021/10/17 02:25:07;;;;;;;15.82;6.78;;;13.60;63.90;;;;;;6206226;28;20037;-71
2021/10/17 02:28:08;;;;;;;16.70;7.07;;;13.60;64.20;;;;;;6220820;28;20475;-71
2021/10/17 02:31:17;;;;;;;17.75;7.30;;;13.50;64.20;;;;;;6222828;28;20049;-72
2021/10/17 02:34:23;;;;;;;11.60;6.57;;;13.50;64.50;;;;;;6226910;28;20041;-71
2021/10/17 02:37:24;;;;;;;11.55;6.40;;;13.40;64.80;;;;;;6226473;28;20085;-71
2021/10/17 02:40:25;;;;;;;15.38;6.68;;;13.30;65.10;;;;;;6242918;28;20033;-72
2021/10/17 02:43:27;;;;;;;15.93;6.95;;;13.30;65.40;;;;;;6242728;28;20034;-72
2021/10/17 02:46:28;;;;;;;12.68;6.55;;;13.30;65.40;;;;;;6231871;28;20337;-72
2021/10/17 02:49:29;;;;;;;11.90;6.35;;;13.30;65.50;;;;;;6210133;28;20092;-72
2021/10/17 02:52:30;;;;;;;14.80;6.88;;;13.30;65.60;;;;;;6226224;28;20486;-72
2021/10/17 02:55:31;;;;;;;15.40;7.05;;;13.30;65.50;;;;;;6226395;28;20033;-72
2021/10/17 02:58:33;;;;;;;11.82;6.57;;;13.30;65.50;;;;;;6225290;28;20038;-72
2021/10/17 03:01:36;;;;;;;16.00;6.80;;;13.30;65.60;;;;;;6225826;28;20033;-72
2021/10/17 03:04:37;;;;;;;11.77;6.90;;;13.30;65.60;;;;;;6226177;28;20431;-72
2021/10/17 03:07:39;;;;;;;10.68;6.53;;;13.30;65.60;;;;;;6242505;28;20049;-72
2021/10/17 03:10:41;;;;;;;12.45;5.97;;;13.30;66.40;;;;;;6210054;28;20057;-71
2021/10/17 03:13:42;;;;;;;12.60;6.68;;;13.30;65.60;;;;;;6240988;28;20056;-72
2021/10/17 03:16:47;;;;;;;13.18;7.18;;;13.30;65.60;;;;;;6227002;28;20470;-72
2021/10/17 03:19:49;;;;;;;9.88;5.05;;;13.30;65.60;;;;;;6225373;28;20105;-72
2021/10/17 03:22:51;;;;;;;13.00;6.32;;;13.20;65.50;;;;;;6242225;28;20414;-72
2021/10/17 03:25:52;;;;;;;12.20;5.90;;;13.20;65.60;;;;;;6225995;28;20045;-72
2021/10/17 03:28:53;;;;;;;14.60;5.78;;;13.10;65.60;;;;;;6222972;28;20184;-72
2021/10/17 03:31:54;;;;;;;15.25;6.72;;;13.10;65.70;;;;;;6225632;28;20034;-72
2021/10/17 03:34:55;;;;;;;16.90;6.75;;;13.20;65.90;;;;;;6226401;28;20041;-71
2021/10/17 03:37:56;;;;;;;12.55;5.93;;;13.00;65.90;;;;;;6208764;28;20042;-72
2021/10/17 03:40:57;;;;;;;14.40;6.55;;;13.00;66.00;;;;;;6225462;28;20034;-71
2021/10/17 03:43:59;;;;;;;11.95;6.47;;;13.00;66.20;;;;;;6224867;28;20056;-71
2021/10/17 03:47:00;;;;;;;13.35;5.93;;;12.90;66.20;;;;;;6228863;28;20037;-71
2021/10/17 03:50:04;;;;;;;11.20;6.25;;;12.90;66.30;;;;;;6225031;28;20030;-72
2021/10/17 03:53:07;;;;;;;14.25;6.72;;;13.00;66.30;;;;;;6225499;28;20092;-72
2021/10/17 03:56:08;;;;;;;14.38;6.10;;;12.90;66.30;;;;;;6241347;28;20046;-72
2021/10/17 03:59:10;;;;;;;13.95;6.97;;;12.90;66.40;;;;;;6207765;28;20045;-71
2021/10/17 04:02:11;;;;;;;12.07;5.93;;;12.90;66.30;;;;;;6225100;28;20037;-72
2021/10/17 04:05:12;;;;;;;15.38;6.38;;;12.90;66.40;;;;;;6224761;28;20049;-72
2021/10/17 04:08:14;;;;;;;12.57;6.63;;;12.80;66.50;;;;;;6241485;28;20120;-72
2021/10/17 04:11:14;;;;;;;14.38;7.18;;;12.80;66.70;;;;;;6241286;28;20096;-71
2021/10/17 04:14:16;;;;;;;9.02;5.32;;;12.70;66.80;;;;;;6224383;28;20532;-71
2021/10/17 04:17:17;;;;;;;12.93;6.57;;;12.70;66.80;;;;;;6230719;28;20076;-71
2021/10/17 04:20:17;;;;;;;15.70;6.20;;;12.70;66.80;;;;;;6208252;28;20041;-72
2021/10/17 04:23:19;;;;;;;14.38;6.75;;;12.70;66.70;;;;;;6241077;28;20036;-71
2021/10/17 04:26:21;;;;;;;11.52;5.82;;;12.60;66.70;;;;;;6224742;28;20426;-71
2021/10/17 04:29:24;;;;;;;11.85;5.93;;;12.60;66.80;;;;;;6223297;28;20109;-71
2021/10/17 04:32:26;;;;;;;13.60;5.50;;;12.50;66.90;;;;;;6240774;28;20033;-71
2021/10/17 04:35:38;;;;;;;10.88;5.82;;;12.50;66.90;;;;;;6223982;28;20030;-72
2021/10/17 04:38:39;;;;;;;12.20;6.32;;;12.50;67.10;;;;;;6222028;28;20053;-72
2021/10/17 04:45:57;;;;;;;12.38;5.93;;;12.50;67.20;;;;;;6224070;28;20383;-72
2021/10/17 04:48:58;;;;;;;13.20;5.60;;;12.40;67.20;;;;;;6223811;28;20521;-72
2021/10/17 04:51:59;;;;;;;12.43;6.35;;;12.40;67.20;;;;;;6223459;28;20037;-72
2021/10/17 04:54:59;;;;;;;13.55;6.07;;;12.40;67.20;;;;;;6239919;28;20104;-72
2021/10/17 04:58:03;;;;;;;10.63;5.68;;;12.40;67.10;;;;;;6206784;28;20034;-71
2021/10/17 05:01:04;;;;;;;11.15;6.18;;;12.40;67.10;;;;;;6223773;28;20185;-71
2021/10/17 05:04:06;;;;;;;13.65;5.85;;;12.40;67.10;;;;;;6223743;28;20164;-71
2021/10/17 05:07:07;;;;;;;10.20;5.57;;;12.40;67.00;;;;;;6223446;28;20032;-72
2021/10/17 05:10:09;;;;;;;14.35;6.05;;;12.40;66.90;;;;;;6223647;28;20026;-71
2021/10/17 05:13:11;;;;;;;13.30;6.38;;;12.40;66.90;;;;;;6222984;28;20076;-72
2021/10/17 05:16:11;;;;;;;16.88;7.60;;;12.40;66.80;;;;;;6212372;28;20467;-71
2021/10/17 05:19:13;;;;;;;14.60;7.32;;;12.40;66.80;;;;;;6223412;28;20091;-72
2021/10/17 05:22:16;;;;;;;12.93;6.35;;;12.40;66.80;;;;;;6223059;28;20521;-74
2021/10/17 05:25:18;;;;;;;11.65;6.43;;;12.40;66.90;;;;;;6236324;28;20069;-72
2021/10/17 05:28:19;;;;;;;13.40;6.25;;;12.30;66.80;;;;;;6222866;28;20475;-72
2021/10/17 05:31:21;;;;;;;9.90;5.78;;;12.30;66.90;;;;;;6223247;28;20030;-72
2021/10/17 05:34:21;;;;;;;14.13;6.45;;;12.40;67.10;;;;;;6223137;28;20045;-72
2021/10/17 05:37:22;;;;;;;13.60;7.35;;;12.40;66.90;;;;;;6223014;28;20283;-71
2021/10/17 05:40:23;;;;;;;17.60;9.15;;;12.40;67.00;;;;;;6223270;28;20056;-71
2021/10/17 05:43:25;;;;;;;14.98;7.80;;;12.40;67.00;;;;;;6222794;28;20034;-72
2021/10/17 05:46:26;;;;;;;15.52;7.60;;;12.30;67.00;;;;;;6224396;28;20037;-72
2021/10/17 05:49:28;;;;;;;12.90;7.55;;;12.30;67.00;;;;;;6223196;28;20034;-72
2021/10/17 05:52:30;;;;;;;15.23;8.52;;;12.30;67.10;;;;;;6206088;28;20084;-71
2021/10/17 05:55:31;;;;;;;14.02;7.47;;;12.30;67.30;;;;;;6206636;28;20054;-72
2021/10/17 05:58:34;;;;;;;15.63;7.88;;;12.30;67.30;;;;;;6222748;28;20049;-72
2021/10/17 06:01:36;;;;;;;14.00;7.25;;;12.30;67.30;;;;;;6223064;28;20470;-72
2021/10/17 06:04:43;;;;;;;22.17;7.78;;;12.20;67.40;;;;;;6238883;28;20414;-71
2021/10/17 06:07:50;;;;;;;19.33;7.70;;;12.20;67.50;;;;;;6223538;28;20041;-71
2021/10/17 06:10:52;;;;;;;16.20;8.02;;;12.20;67.50;;;;;;6227468;28;20112;-71
2021/10/17 06:13:53;;;;;;;17.10;6.65;;;12.20;67.50;;;;;;6243573;28;20045;-71
2021/10/17 06:16:55;;;;;;;13.15;6.75;;;12.30;67.50;;;;;;6230001;28;20034;-73
2021/10/17 06:19:57;;;;;;;14.23;6.45;;;12.30;67.40;;;;;;6227347;28;20374;-71
2021/10/17 06:22:58;;;;;;;14.00;6.30;;;12.30;67.30;;;;;;6227445;28;20030;-71
2021/10/17 06:25:59;;;;;;;13.18;7.35;;;12.30;67.30;;;;;;6210790;28;20033;-71
2021/10/17 06:29:00;;;;;;;16.13;7.20;;;12.30;67.30;;;;;;6225804;28;20049;-72
2021/10/17 06:32:02;;;;;;;11.50;5.88;;;12.30;67.30;;;;;;6210556;28;20049;-72
2021/10/17 06:35:05;;;;;;;12.23;6.30;;;12.30;67.30;;;;;;6242856;28;20046;-72
2021/10/17 06:38:06;;;;;;;12.45;6.70;;;12.20;67.20;;;;;;6210297;28;20054;-72
2021/10/17 06:41:07;;;;;;;13.32;6.38;;;12.20;67.20;;;;;;6225852;28;20099;-71
2021/10/17 06:44:08;;;;;;;10.93;6.30;;;12.30;67.30;;;;;;6227062;28;20443;-72
2021/10/17 06:47:10;;;;;;;12.35;6.57;;;12.30;67.30;;;;;;6231839;28;20121;-71
2021/10/17 06:50:13;;;;;;;13.02;6.88;;;12.30;67.10;;;;;;6226978;28;20430;-71
2021/10/17 06:53:17;;;;;;;11.70;5.57;;;12.40;67.10;;;;;;6225990;28;20029;-71
2021/10/17 06:56:18;;;;;;;15.57;5.85;;;12.40;67.10;;;;;;6225068;28;20042;-71
2021/10/17 06:59:19;;;;;;;10.93;6.25;;;12.40;67.00;;;;;;6224860;28;20474;-73
2021/10/17 07:02:20;;;;;;;13.60;6.53;;;12.40;66.90;;;;;;6233924;28;20125;-74
2021/10/17 07:05:22;;;;;;;11.77;6.35;;;12.50;66.80;;;;;;6242649;28;20054;-73
2021/10/17 07:08:23;;;;;;;18.38;7.55;;;12.60;66.70;;;;;;6226643;28;20082;-72
2021/10/17 07:11:24;;;;;;;14.32;6.85;;;12.60;66.60;;;;;;6240024;28;20068;-72
2021/10/17 07:14:32;;;;;;;16.88;7.47;;;12.60;66.50;;;;;;6225312;28;20029;-71
2021/10/17 07:17:59;;;;;;;12.23;5.63;;;12.60;66.30;;;;;;6220981;28;20128;-72
2021/10/17 07:21:00;;;;;;;19.00;6.07;;;12.70;66.20;;;;;;6224812;28;20033;-72
2021/10/17 07:24:01;;;;;;;10.02;5.65;;;12.70;66.20;;;;;;6201652;28;20359;-72
2021/10/17 07:27:02;;;;;;;24.33;6.43;;;12.80;66.40;;;;;;6209116;28;20062;-71
2021/10/17 07:30:05;;;;;;;12.68;5.75;;;12.80;66.30;;;;;;6205095;28;20116;-72
2021/10/17 07:33:06;;;;;;;9.82;5.80;;;12.90;66.20;;;;;;6242278;28;20049;-73
2021/10/17 07:36:08;;;;;;;13.52;6.38;;;12.90;66.00;;;;;;6209229;28;20124;-71
2021/10/17 07:39:11;;;;;;;12.20;5.55;;;13.00;65.90;;;;;;6209019;28;20168;-72
2021/10/17 07:42:14;;;;;;;11.15;5.20;;;13.10;65.80;;;;;;6209273;28;20038;-72
2021/10/17 07:45:16;;;;;;;12.43;6.05;;;13.20;65.60;;;;;;6212552;28;20026;-73
2021/10/17 07:48:31;;;;;;;11.85;5.65;;;13.20;65.30;;;;;;6209088;28;20037;-71
2021/10/17 07:51:32;;;;;;;10.60;5.75;;;13.30;65.20;;;;;;6223327;28;20416;-72
2021/10/17 07:54:37;;;;;;;11.70;5.15;;;13.40;65.10;;;;;;6223188;28;20374;-71
2021/10/17 07:57:48;;;;;;;11.50;5.45;;;13.40;65.00;;;;;;6238536;28;20102;-72
2021/10/17 08:00:51;;;;;;;12.23;5.38;;;13.50;64.90;;;;;;6221474;28;20089;-72
2021/10/17 08:04:09;;;;;;;10.55;5.78;;;13.60;64.70;;;;;;6222189;28;20443;-72
2021/10/17 08:07:17;;;;;;;9.15;4.95;;;13.70;64.40;;;;;;6223113;28;20042;-72
2021/10/17 08:10:20;;;;;;;12.85;6.32;;;13.80;64.20;;;;;;6221672;28;20049;-71
2021/10/17 08:13:25;;;;;;;13.48;6.15;;;13.90;64.20;;;;;;6220887;28;20119;-71
2021/10/17 08:16:31;;;;;;;12.05;6.25;;;14.00;64.00;;;;;;6212838;28;20041;-72
2021/10/17 08:19:33;;;;;;;16.55;6.40;;;14.10;63.60;;;;;;6221702;28;20433;-72
2021/10/17 08:22:35;;;;;;;13.95;6.25;;;14.20;63.40;;;;;;6221663;28;20033;-72
2021/10/17 08:25:40;;;;;;;11.98;6.07;;;14.30;63.30;;;;;;6221298;28;20038;-72
2021/10/17 08:28:42;;;;;;;20.25;7.25;;;14.40;63.10;;;;;;6220301;28;20034;-73
2021/10/17 08:31:52;;;;;;;15.90;6.30;;;14.50;62.90;;;;;;6222251;28;20475;-72
2021/10/17 08:34:53;;;;;;;11.82;6.15;;;14.60;62.60;;;;;;6206581;28;20099;-72
2021/10/17 08:37:56;;;;;;;13.68;6.20;;;14.80;62.50;;;;;;6221945;28;20501;-72
2021/10/17 08:41:13;;;;;;;13.18;6.07;;;14.90;62.30;;;;;;6221961;28;20041;-72
2021/10/17 08:44:22;;;;;;;9.48;5.10;;;15.10;62.00;;;;;;6219967;28;20489;-74
2021/10/17 08:47:37;;;;;;;12.95;6.57;;;15.20;61.50;;;;;;6220659;28;20037;-72
2021/10/17 08:50:39;;;;;;;14.27;6.18;;;15.30;61.00;;;;;;6220369;28;20045;-72
2021/10/17 08:53:40;;;;;;;12.65;6.00;;;15.40;60.60;;;;;;6220903;28;20124;-72
2021/10/17 08:56:46;;;;;;;11.20;6.30;;;15.40;60.20;;;;;;6237439;28;20103;-72
2021/10/17 08:59:51;;;;;;;16.83;6.07;;;15.50;59.90;;;;;;6219436;28;20026;-72
2021/10/17 09:02:54;;;;;;;16.65;7.00;;;15.60;59.90;;;;;;6220988;28;20026;-72
2021/10/17 09:05:55;;;;;;;11.25;6.45;;;15.60;59.60;;;;;;6220483;28;20069;-72
2021/10/17 09:09:20;;;;;;;16.90;5.95;;;15.70;59.50;;;;;;6219555;28;20036;-71
2021/10/17 09:12:25;;;;;;;13.63;6.80;;;15.80;59.40;;;;;;6215417;28;20026;-71
2021/10/17 09:15:31;;;;;;;15.85;7.60;;;15.90;59.10;;;;;;6223737;28;20043;-72
2021/10/17 09:18:35;;;;;;;14.27;7.35;;;16.00;59.20;;;;;;6220665;28;20034;-72
2021/10/17 09:21:51;;;;;;;16.80;8.18;;;16.10;59.10;;;;;;6234004;28;20049;-72
2021/10/17 09:24:53;;;;;;;18.55;8.40;;;16.10;58.80;;;;;;6218600;28;20041;-72
2021/10/17 09:27:54;;;;;;;12.63;6.30;;;16.20;58.60;;;;;;6216962;28;20030;-72
2021/10/17 09:31:14;;;;;;;16.52;6.68;;;16.30;58.60;;;;;;6219445;28;20041;-72
2021/10/17 09:34:26;;;;;;;12.07;6.30;;;16.40;58.60;;;;;;6235361;28;20086;-72
2021/10/17 09:37:37;;;;;;;11.98;5.88;;;16.50;58.20;;;;;;6219626;28;20037;-72
2021/10/17 09:41:20;;;;;;;10.50;5.70;;;16.50;58.00;;;;;;6211715;28;20042;-72
2021/10/17 09:44:41;;;;;;;9.45;5.63;;;16.60;57.90;;;;;;6223712;28;20038;-72
2021/10/17 09:47:42;;;;;;;9.52;5.10;;;16.70;57.60;;;;;;6238419;28;20124;-73
2021/10/17 09:50:43;;;;;;;15.77;5.53;;;16.70;57.40;;;;;;6223727;28;20052;-74
2021/10/17 09:53:46;;;;;;;8.27;5.00;;;16.80;57.00;;;;;;6223891;28;20038;-73
2021/10/17 09:56:47;;;;;;;11.20;5.82;;;16.90;57.00;;;;;;6222709;28;20026;-73
2021/10/17 09:59:48;;;;;;;10.25;5.80;;;17.00;57.00;;;;;;6223876;28;20041;-71
2021/10/17 10:02:51;;;;;;;12.75;5.05;;;17.10;57.30;;;;;;6223727;28;20026;-73
2021/10/17 10:05:56;;;;;;;12.73;5.57;;;17.30;56.50;;;;;;6218448;28;20451;-73
2021/10/17 10:09:07;;;;;;;15.93;7.40;;;17.50;55.80;;;;;;6224973;28;20088;-73
2021/10/17 10:12:09;;;;;;;20.13;9.15;;;17.80;55.00;;;;;;6224287;28;20049;-71
2021/10/17 10:15:11;;;;;;;14.38;6.78;;;18.10;54.20;;;;;;6227091;28;20033;-71
2021/10/17 10:18:13;;;;;;;11.60;5.45;;;18.40;53.90;;;;;;6225914;28;20046;-72
2021/10/17 10:21:14;;;;;;;9.38;5.22;;;18.70;53.30;;;;;;6225659;28;20037;-70
2021/10/17 10:24:17;;;;;;;12.35;7.28;;;19.00;53.10;;;;;;6224561;28;20026;-70
2021/10/17 10:27:20;;;;;;;13.95;6.88;;;19.30;52.60;;;;;;6224549;28;20037;-71
2021/10/17 10:30:24;;;;;;;15.85;6.05;;;19.60;52.40;;;;;;6224899;28;20025;-71
2021/10/17 10:33:29;;;;;;;8.30;5.05;;;19.80;51.10;;;;;;6225260;28;20328;-71
2021/10/17 10:36:40;;;;;;;12.40;5.68;;;20.10;50.80;;;;;;6205863;28;20056;-72
2021/10/17 10:40:15;;;;;;;17.08;8.23;;;20.30;50.20;;;;;;6223420;28;20459;-73
2021/10/17 10:43:17;;;;;;;17.52;7.18;;;20.60;49.80;;;;;;6197007;28;20134;-72
2021/10/17 10:46:38;;;;;;;13.30;5.85;;;20.80;49.10;;;;;;6197631;28;20042;-72
2021/10/17 10:49:45;;;;;;;13.65;7.30;;;21.00;48.60;;;;;;6194006;28;20045;-73
2021/10/17 10:52:46;;;;;;;10.10;5.45;;;21.30;48.60;;;;;;6193296;28;20042;-73
2021/10/17 10:55:50;;;;;;;13.45;4.88;;;21.50;48.10;;;;;;6180662;28;20062;-73
2021/10/17 10:58:55;;;;;;;8.98;5.07;;;21.70;47.30;;;;;;6178805;28;20038;-73
2021/10/17 11:01:58;;;;;;;9.98;5.25;;;21.90;46.20;;;;;;6199519;28;20383;-72
2021/10/17 11:05:07;;;;;;;10.05;4.18;;;22.00;45.60;;;;;;6199433;28;20046;-72
2021/10/17 11:08:13;;;;;;;7.88;4.82;;;22.20;45.00;;;;;;6179325;28;20040;-72
2021/10/17 11:11:38;;;;;;;10.02;4.68;;;22.50;44.90;;;;;;6196326;28;20077;-72
2021/10/17 11:14:39;;;;;;;9.90;5.10;;;22.70;44.60;;;;;;6171224;28;20321;-72
2021/10/17 11:17:54;;;;;;;23.13;9.88;;;23.00;43.30;;;;;;6187062;28;20363;-72
2021/10/17 11:20:55;;;;;;;19.98;9.25;;;23.30;42.60;;;;;;6222826;28;20042;-72
2021/10/17 11:23:57;;;;;;;8.93;4.90;;;23.40;41.60;;;;;;6222025;28;20128;-72
2021/10/17 11:27:09;;;;;;;14.63;8.73;;;23.60;41.50;;;;;;6221921;28;20033;-72
2021/10/17 11:30:29;;;;;;;9.82;5.95;;;23.90;41.10;;;;;;6219263;28;20038;-72
2021/10/17 11:33:31;;;;;;;7.43;4.18;;;24.20;40.90;;;;;;6221276;28;20038;-72
2021/10/17 11:36:32;;;;;;;10.88;5.43;;;24.60;40.40;;;;;;6220686;28;20053;-72
2021/10/17 11:39:55;;;;;;;14.20;5.80;;;25.10;39.80;;;;;;6220887;28;20046;-72
2021/10/17 11:43:00;;;;;;;13.38;6.90;;;25.50;38.80;;;;;;6235739;28;20034;-72
2021/10/17 11:46:06;;;;;;;12.13;4.22;;;25.90;38.30;;;;;;6235018;28;20034;-72
2021/10/17 11:49:12;;;;;;;10.55;5.60;;;26.50;37.30;;;;;;6213875;28;20065;-73
2021/10/17 11:52:22;;;;;;;6.80;4.00;;;26.90;36.30;;;;;;6219027;28;20882;-72
2021/10/17 11:55:40;;;;;;;6.70;4.25;;;27.20;35.40;;;;;;6219869;28;20042;-72
2021/10/17 11:58:41;;;;;;;4.95;3.30;;;27.70;34.50;;;;;;6220554;28;20034;-72
2021/10/17 12:01:42;;;;;;;9.43;3.85;;;28.00;33.80;;;;;;6204543;28;20047;-72
2021/10/17 12:04:43;;;;;;;8.68;4.00;;;28.20;32.90;;;;;;6219971;28;20118;-74
2021/10/17 12:07:44;;;;;;;6.45;3.35;;;28.40;33.00;;;;;;6203812;28;20034;-74
2021/10/17 12:11:03;;;;;;;9.15;3.25;;;28.70;32.40;;;;;;6220246;28;20045;-72
2021/10/17 12:14:27;;;;;;;4.13;2.88;;;28.90;31.40;;;;;;6235730;28;20441;-72
2021/10/17 12:17:29;;;;;;;6.47;3.10;;;29.00;30.60;;;;;;6219882;28;20033;-72
2021/10/17 12:20:32;;;;;;;7.88;3.10;;;29.20;30.30;;;;;;6200956;28;20033;-72
2021/10/17 12:23:33;;;;;;;3.25;2.13;;;29.50;30.00;;;;;;6219336;28;20355;-72
2021/10/17 12:26:55;;;;;;;4.53;2.83;;;29.70;29.40;;;;;;6212091;28;20438;-73
2021/10/17 12:30:04;;;;;;;3.92;2.30;;;29.70;29.00;;;;;;6233022;28;20034;-72
2021/10/17 12:33:11;;;;;;;5.35;3.40;;;29.60;28.90;;;;;;6219987;28;20346;-71
2021/10/17 12:36:21;;;;;;;4.18;2.65;;;29.20;29.30;;;;;;6236139;28;20052;-73
2021/10/17 12:39:22;;;;;;;3.42;2.20;;;28.40;29.90;;;;;;6219222;28;20053;-73
2021/10/17 12:42:23;;;;;;;8.30;2.45;;;27.70;30.40;;;;;;6220846;28;20034;-75
2021/10/17 12:45:32;;;;;;;2.83;2.20;;;27.00;30.60;;;;;;6219296;28;20352;-73
2021/10/17 12:48:47;;;;;;;3.45;2.45;;;26.30;31.50;;;;;;6219832;28;20129;-72
2021/10/17 12:51:52;;;;;;;4.10;2.60;;;25.80;32.10;;;;;;6220280;28;20041;-73
2021/10/17 12:54:58;;;;;;;5.20;2.50;;;25.20;32.80;;;;;;6221759;28;20042;-74
2021/10/17 12:58:02;;;;;;;4.85;2.70;;;24.70;33.60;;;;;;6220025;28;20033;-73
2021/10/17 13:01:05;;;;;;;3.38;2.60;;;24.30;34.40;;;;;;6219984;28;20033;-73
2021/10/17 13:04:10;;;;;;;4.10;2.55;;;24.00;35.00;;;;;;6237285;28;20038;-73
2021/10/17 13:07:14;;;;;;;5.75;2.97;;;23.70;35.40;;;;;;6221359;28;20065;-72
2021/10/17 13:10:17;;;;;;;4.57;3.00;;;23.40;35.80;;;;;;6221866;28;20109;-73
2021/10/17 13:13:23;;;;;;;7.25;3.15;;;23.20;36.40;;;;;;6221618;28;20045;-73
2021/10/17 13:16:30;;;;;;;4.50;2.83;;;23.00;36.90;;;;;;6222400;28;20053;-72
2021/10/17 13:19:31;;;;;;;6.68;3.13;;;22.80;37.50;;;;;;6220449;28;20050;-73
2021/10/17 13:22:32;;;;;;;8.63;2.92;;;22.70;38.00;;;;;;6210186;28;20041;-73
2021/10/17 13:25:37;;;;;;;4.13;3.03;;;22.60;38.40;;;;;;6207194;28;20045;-73
2021/10/17 13:28:39;;;;;;;4.60;2.70;;;22.50;38.50;;;;;;6199473;28;20042;-73
2021/10/17 13:31:40;;;;;;;3.38;2.40;;;22.50;38.60;;;;;;6223928;28;20511;-73
2021/10/17 13:34:41;;;;;;;4.35;2.55;;;22.40;38.80;;;;;;6223888;28;20045;-72
2021/10/17 13:37:42;;;;;;;7.57;3.05;;;22.40;38.80;;;;;;6225508;28;20061;-73
2021/10/17 13:40:43;;;;;;;3.53;2.47;;;22.30;39.00;;;;;;6223641;28;20041;-74
2021/10/17 13:43:44;;;;;;;4.55;2.97;;;22.30;39.10;;;;;;6222438;28;20069;-72
2021/10/17 13:46:45;;;;;;;6.85;2.75;;;22.20;39.10;;;;;;6222214;28;20038;-72
2021/10/17 13:49:46;;;;;;;5.05;2.25;;;22.20;39.30;;;;;;6221837;28;20485;-72
2021/10/17 13:52:48;;;;;;;5.90;2.70;;;22.20;39.40;;;;;;6205950;28;20089;-73
2021/10/17 13:55:49;;;;;;;6.55;2.65;;;22.20;39.60;;;;;;6223696;28;20132;-73
2021/10/17 13:58:50;;;;;;;4.22;2.50;;;22.10;39.60;;;;;;6205080;28;20037;-73
2021/10/17 14:01:52;;;;;;;6.43;2.97;;;22.10;39.70;;;;;;6222751;28;20045;-72
2021/10/17 14:04:52;;;;;;;11.77;2.70;;;22.10;39.90;;;;;;6201707;28;20049;-73
2021/10/17 14:07:53;;;;;;;5.18;1.92;;;22.20;40.00;;;;;;6222150;28;20505;-73
2021/10/17 14:10:54;;;;;;;4.38;2.67;;;22.10;40.10;;;;;;6223263;28;20034;-73
2021/10/17 14:13:55;;;;;;;3.63;2.40;;;22.10;40.20;;;;;;6202010;28;20057;-73
2021/10/17 14:16:56;;;;;;;3.92;2.17;;;22.10;40.40;;;;;;6205809;28;20037;-73
2021/10/17 14:19:57;;;;;;;4.63;2.38;;;22.10;40.50;;;;;;6223482;28;20034;-72
2021/10/17 14:22:58;;;;;;;5.50;2.65;;;22.10;40.50;;;;;;6225917;28;20163;-73
2021/10/17 14:25:59;;;;;;;4.40;2.28;;;22.10;40.60;;;;;;6222332;28;20045;-72
2021/10/17 14:29:00;;;;;;;3.22;2.13;;;22.10;40.70;;;;;;6224020;28;20057;-74
2021/10/17 14:32:01;;;;;;;4.35;2.40;;;22.10;40.80;;;;;;6210263;28;20034;-73
2021/10/17 14:35:02;;;;;;;3.85;2.17;;;22.10;40.90;;;;;;6224924;28;20042;-72
2021/10/17 14:38:04;;;;;;;3.30;2.10;;;22.10;40.90;;;;;;6225235;28;20140;-73
2021/10/17 14:41:05;;;;;;;5.35;2.10;;;22.00;40.90;;;;;;6209362;28;20129;-72
2021/10/17 14:44:07;;;;;;;3.30;2.38;;;22.10;41.00;;;;;;6225460;28;20053;-72
2021/10/17 14:47:08;;;;;;;2.17;1.95;;;22.00;41.00;;;;;;6242333;28;20037;-72
2021/10/17 14:50:09;;;;;;;3.10;2.22;;;22.00;41.00;;;;;;6226051;28;20046;-71
2021/10/17 14:53:10;;;;;;;3.70;2.30;;;22.00;41.10;;;;;;6230884;28;20355;-72
2021/10/17 14:56:11;;;;;;;4.43;2.50;;;21.90;41.10;;;;;;6227140;28;20053;-73
2021/10/17 14:59:12;;;;;;;4.53;2.40;;;21.90;41.80;;;;;;6208826;28;20053;-71
2021/10/17 15:02:13;;;;;;;3.45;2.28;;;22.00;41.20;;;;;;6227144;28;20038;-74
2021/10/17 15:05:14;;;;;;;4.97;2.40;;;21.90;41.20;;;;;;6241952;28;20407;-72
2021/10/17 15:08:15;;;;;;;5.05;2.13;;;21.90;41.20;;;;;;6225673;28;20041;-72
2021/10/17 15:11:16;;;;;;;4.93;2.25;;;21.90;41.20;;;;;;6219368;28;20038;-72
2021/10/17 15:14:17;;;;;;;4.35;2.40;;;21.90;41.20;;;;;;6225216;28;20045;-73
2021/10/17 15:17:17;;;;;;;4.18;2.10;;;21.90;41.30;;;;;;6223356;28;20125;-72
2021/10/17 15:20:18;;;;;;;9.93;2.92;;;21.80;41.40;;;;;;6226980;28;20030;-75
2021/10/17 15:23:19;;;;;;;3.03;2.50;;;21.80;41.40;;;;;;6227662;28;20062;-74
2021/10/17 15:26:20;;;;;;;8.00;2.40;;;21.70;41.40;;;;;;6225463;28;20030;-73
2021/10/17 15:29:21;;;;;;;3.03;2.40;;;21.70;42.10;;;;;;6224281;28;20034;-74
2021/10/17 15:32:25;;;;;;;7.07;2.22;;;21.70;41.50;;;;;;6225448;28;20030;-73
2021/10/17 15:35:26;;;;;;;3.58;2.00;;;21.70;41.60;;;;;;6225934;28;20407;-73
2021/10/17 15:38:27;;;;;;;5.50;2.60;;;21.70;41.70;;;;;;6226174;28;20052;-73
2021/10/17 15:41:28;;;;;;;5.35;2.40;;;21.60;41.70;;;;;;6225210;28;20432;-73
2021/10/17 15:44:29;;;;;;;7.03;2.15;;;21.70;41.90;;;;;;6224577;28;20073;-73
2021/10/17 15:47:30;;;;;;;6.15;2.80;;;21.60;41.80;;;;;;6225122;28;20083;-73
2021/10/17 15:50:34;;;;;;;4.15;2.53;;;21.60;42.00;;;;;;6224203;28;20073;-74
2021/10/17 15:53:35;;;;;;;4.13;2.50;;;21.50;42.10;;;;;;6227947;28;20130;-73